createdAt,value
2022-12-03T00:00:59.196Z,98528.26
2022-12-03T00:03:28.236Z,98527.13
2022-12-03T00:05:56.571Z,98530.27
2022-12-03T00:08:24.559Z,98534.97
2022-12-03T00:10:52.408Z,98540.25
2022-12-03T00:13:20.375Z,98549.81
2022-12-03T00:15:48.418Z,98552.56
2022-12-03T00:18:16.417Z,98555.69
2022-12-03T00:20:44.283Z,98557.23
2022-12-03T00:23:12.136Z,98558.73
2022-12-03T00:25:40.028Z,98558.17
2022-12-03T00:28:07.890Z,98560.05
2022-12-03T00:30:35.967Z,98558.33
2022-12-03T00:33:03.929Z,98559.70
2022-12-03T00:35:31.747Z,98560.09
2022-12-03T00:37:59.662Z,98563.05
2022-12-03T00:40:27.635Z,98567.77
2022-12-03T00:42:55.659Z,98573.36
2022-12-03T00:45:23.676Z,98576.34
2022-12-03T00:47:51.955Z,98573.98
2022-12-03T00:50:19.923Z,98575.30
2022-12-03T00:52:47.880Z,98580.15
2022-12-03T00:55:16.678Z,98580.36
2022-12-03T00:57:44.643Z,98577.84
2022-12-03T01:00:13.528Z,98580.11
2022-12-03T01:02:41.358Z,98583.79
2022-12-03T01:05:09.534Z,98588.29
2022-12-03T01:07:37.581Z,98589.35
2022-12-03T01:10:06.133Z,98592.84
2022-12-03T01:12:33.944Z,98588.58
2022-12-03T01:15:01.873Z,98589.84
2022-12-03T01:17:29.834Z,98593.11
2022-12-03T01:19:59.177Z,98597.07
2022-12-03T01:22:27.719Z,98596.39
2022-12-03T01:24:55.751Z,98598.31
2022-12-03T01:27:23.970Z,98596.98
2022-12-03T01:29:51.891Z,98599.04
2022-12-03T01:32:19.940Z,98598.36
2022-12-03T01:34:49.619Z,98596.84
2022-12-03T01:37:18.508Z,98595.64
2022-12-03T01:39:46.685Z,98595.31
2022-12-03T01:42:19.769Z,98595.30
2022-12-03T01:44:48.460Z,98592.60
2022-12-03T01:47:18.244Z,98595.02
2022-12-03T01:50:12.252Z,98592.48
2022-12-03T01:52:40.838Z,98590.44
2022-12-03T01:55:13.928Z,98590.98
2022-12-03T01:57:46.479Z,98588.45
2022-12-03T02:00:18.572Z,98589.67
2022-12-03T02:02:48.479Z,98590.73
2022-12-03T02:05:18.190Z,98588.03
2022-12-03T02:07:46.527Z,98586.69
2022-12-03T02:10:16.485Z,98586.04
2022-12-03T02:12:47.839Z,98585.02
2022-12-03T02:15:16.011Z,98588.63
2022-12-03T02:17:44.284Z,98586.40
2022-12-03T02:20:12.768Z,98588.79
2022-12-03T02:22:45.376Z,98587.73
2022-12-03T02:25:32.577Z,98588.01
2022-12-03T02:28:01.051Z,98590.34
2022-12-03T02:30:29.933Z,98590.09
2022-12-03T02:32:58.456Z,98589.68
2022-12-03T02:35:28.133Z,98593.23
2022-12-03T02:38:02.138Z,98596.42
2022-12-03T02:40:32.570Z,98592.42
2022-12-03T02:43:02.685Z,98587.22
2022-12-03T02:45:32.813Z,98593.14
2022-12-03T02:48:06.617Z,98599.30
2022-12-03T02:50:40.416Z,98604.01
2022-12-03T02:53:10.746Z,98599.77
2022-12-03T02:55:39.324Z,98594.32
2022-12-03T02:58:07.299Z,98598.80
2022-12-03T03:00:35.932Z,98596.77
2022-12-03T03:03:04.796Z,98598.50
2022-12-03T03:05:33.459Z,98596.98
2022-12-03T03:08:01.821Z,98600.95
2022-12-03T03:10:30.737Z,98600.99
2022-12-03T03:12:58.797Z,98598.96
2022-12-03T03:15:26.665Z,98600.52
2022-12-03T03:17:54.531Z,98598.31
2022-12-03T03:20:22.615Z,98600.54
2022-12-03T03:22:50.580Z,98602.95
2022-12-03T03:25:21.255Z,98602.79
2022-12-03T03:27:49.180Z,98604.52
2022-12-03T03:30:17.204Z,98607.60
2022-12-03T03:32:45.114Z,98604.70
2022-12-03T03:35:14.842Z,98604.04
2022-12-03T03:37:42.672Z,98608.67
2022-12-03T03:40:10.974Z,98613.14
2022-12-03T03:42:39.351Z,98614.35
2022-12-03T03:45:08.242Z,98614.04
2022-12-03T03:47:36.411Z,98617.66
2022-12-03T03:50:05.064Z,98621.43
2022-12-03T03:52:33.072Z,98621.61
2022-12-03T03:55:01.041Z,98623.52
2022-12-03T03:57:28.860Z,98616.00
2022-12-03T03:59:57.998Z,98614.12
2022-12-03T04:02:27.203Z,98612.58
2022-12-03T04:04:55.426Z,98613.75
2022-12-03T04:07:23.545Z,98620.94
2022-12-03T04:09:51.516Z,98618.70
2022-12-03T04:12:37.896Z,98619.55
2022-12-03T04:15:06.197Z,98622.61
2022-12-03T04:17:34.163Z,98624.13
2022-12-03T04:20:01.924Z,98624.81
2022-12-03T04:22:41.989Z,98628.05
2022-12-03T04:25:28.999Z,98630.08
2022-12-03T04:28:15.512Z,98624.41
2022-12-03T04:30:43.420Z,98627.14
2022-12-03T04:33:30.185Z,98627.82
2022-12-03T04:35:58.100Z,98627.14
2022-12-03T04:38:26.021Z,98628.16
2022-12-03T04:41:04.439Z,98627.81
2022-12-03T04:43:55.549Z,98630.20
2022-12-03T04:46:23.570Z,98632.77
2022-12-03T04:48:51.588Z,98637.05
2022-12-03T04:51:19.557Z,98638.77
2022-12-03T04:53:47.425Z,98648.38
2022-12-03T04:56:15.394Z,98647.86
2022-12-03T04:58:45.103Z,98645.83
2022-12-03T05:01:12.968Z,98643.42
2022-12-03T05:03:41.450Z,98642.23
2022-12-03T05:06:09.423Z,98644.13
2022-12-03T05:08:37.290Z,98644.46
2022-12-03T05:11:05.255Z,98644.45
2022-12-03T05:13:33.231Z,98648.90
2022-12-03T05:16:01.594Z,98649.60
2022-12-03T05:18:29.468Z,98649.77
2022-12-03T05:20:57.444Z,98651.65
2022-12-03T05:23:25.307Z,98648.17
2022-12-03T05:25:53.377Z,98648.14
2022-12-03T05:28:23.291Z,98649.14
2022-12-03T05:30:51.662Z,98652.04
2022-12-03T05:33:20.665Z,98654.41
2022-12-03T05:35:48.636Z,98658.31
2022-12-03T05:38:16.447Z,98663.27
2022-12-03T05:40:44.534Z,98660.65
2022-12-03T05:43:12.438Z,98660.58
2022-12-03T05:45:41.419Z,98659.09
2022-12-03T05:48:11.041Z,98654.02
2022-12-03T05:50:39.886Z,98657.20
2022-12-03T05:53:17.528Z,98655.05
2022-12-03T05:55:45.502Z,98656.02
2022-12-03T05:58:13.574Z,98659.05
2022-12-03T06:00:43.004Z,98663.53
2022-12-03T06:03:11.390Z,98663.70
2022-12-03T06:05:39.757Z,98665.58
2022-12-03T06:08:07.795Z,98664.55
2022-12-03T06:10:35.730Z,98666.58
2022-12-03T06:13:03.637Z,98666.73
2022-12-03T06:15:31.720Z,98668.47
2022-12-03T06:17:59.679Z,98671.42
2022-12-03T06:20:27.757Z,98674.20
2022-12-03T06:22:55.721Z,98676.98
2022-12-03T06:25:23.692Z,98677.39
2022-12-03T06:27:51.565Z,98679.85
2022-12-03T06:30:19.527Z,98679.73
2022-12-03T06:32:47.394Z,98679.58
2022-12-03T06:35:15.475Z,98679.09
2022-12-03T06:37:43.527Z,98679.47
2022-12-03T06:40:11.864Z,98680.34
2022-12-03T06:42:39.897Z,98682.56
2022-12-03T06:45:08.701Z,98682.55
2022-12-03T06:47:37.061Z,98683.78
2022-12-03T06:50:06.155Z,98684.45
2022-12-03T06:52:34.120Z,98686.30
2022-12-03T06:55:02.089Z,98687.34
2022-12-03T06:57:30.064Z,98687.86
2022-12-03T06:59:58.028Z,98687.33
2022-12-03T07:02:26.075Z,98686.28
2022-12-03T07:04:54.554Z,98689.17
2022-12-03T07:07:22.760Z,98690.17
2022-12-03T07:09:50.553Z,98689.30
2022-12-03T07:12:18.528Z,98692.73
2022-12-03T07:14:46.767Z,98691.73
2022-12-03T07:17:14.638Z,98691.97
2022-12-03T07:19:43.629Z,98691.66
2022-12-03T07:22:11.700Z,98694.27
2022-12-03T07:24:39.673Z,98694.44
2022-12-03T07:27:07.534Z,98701.27
2022-12-03T07:29:35.509Z,98705.55
2022-12-03T07:32:03.488Z,98696.79
2022-12-03T07:34:31.299Z,98696.58
2022-12-03T07:36:59.207Z,98701.50
2022-12-03T07:39:27.073Z,98703.02
2022-12-03T07:41:55.049Z,98699.71
2022-12-03T07:44:23.119Z,98702.09
2022-12-03T07:46:51.122Z,98702.58
2022-12-03T07:49:19.368Z,98702.21
2022-12-03T07:51:54.029Z,98704.57
2022-12-03T07:54:22.169Z,98704.71
2022-12-03T07:56:50.354Z,98703.81
2022-12-03T07:59:18.861Z,98699.48
2022-12-03T08:01:46.834Z,98700.44
2022-12-03T08:04:19.162Z,98700.67
2022-12-03T08:06:47.665Z,98700.75
2022-12-03T08:09:16.297Z,98702.55
2022-12-03T08:11:47.886Z,98701.44
2022-12-03T08:14:17.493Z,98704.83
2022-12-03T08:16:46.411Z,98706.31
2022-12-03T08:19:15.475Z,98704.52
2022-12-03T08:21:43.861Z,98700.63
2022-12-03T08:24:14.796Z,98705.15
2022-12-03T08:26:44.475Z,98705.88
2022-12-03T08:29:13.911Z,98707.81
2022-12-03T08:31:42.864Z,98706.13
2022-12-03T08:34:25.452Z,98707.04
2022-12-03T08:36:58.193Z,98704.50
2022-12-03T08:39:26.061Z,98700.27
2022-12-03T08:42:13.957Z,98700.66
2022-12-03T08:44:42.615Z,98704.16
2022-12-03T08:47:19.777Z,98700.42
2022-12-03T08:49:51.734Z,98698.05
2022-12-03T08:52:20.727Z,98693.55
2022-12-03T08:54:53.184Z,98688.36
2022-12-03T08:57:32.032Z,98690.74
2022-12-03T09:00:12.588Z,98692.92
2022-12-03T09:02:45.162Z,98689.92
2022-12-03T09:05:18.941Z,98688.55
2022-12-03T09:07:46.997Z,98686.15
2022-12-03T09:10:15.531Z,98682.95
2022-12-03T09:12:43.595Z,98683.19
2022-12-03T09:15:11.668Z,98679.97
2022-12-03T09:17:39.842Z,98677.95
2022-12-03T09:20:08.427Z,98677.11
2022-12-03T09:22:36.399Z,98675.91
2022-12-03T09:25:04.467Z,98676.13
2022-12-03T09:27:32.439Z,98677.07
2022-12-03T09:30:00.615Z,98675.88
2022-12-03T09:32:28.448Z,98677.11
2022-12-03T09:34:56.907Z,98673.08
2022-12-03T09:37:25.031Z,98672.47
2022-12-03T09:39:53.009Z,98672.31
2022-12-03T09:42:20.972Z,98673.31
2022-12-03T09:44:48.856Z,98674.94
2022-12-03T09:47:16.812Z,98675.22
2022-12-03T09:49:44.874Z,98672.95
2022-12-03T09:52:18.788Z,98669.01
2022-12-03T09:54:47.724Z,98667.05
2022-12-03T09:57:16.980Z,98666.24
2022-12-03T09:59:45.359Z,98660.71
2022-12-03T10:02:25.006Z,98660.95
2022-12-03T10:04:53.579Z,98659.08
2022-12-03T10:07:22.175Z,98653.41
2022-12-03T10:09:50.307Z,98650.64
2022-12-03T10:12:23.032Z,98645.77
2022-12-03T10:14:51.866Z,98644.66
2022-12-03T10:17:19.991Z,98643.26
2022-12-03T10:19:49.595Z,98645.24
2022-12-03T10:22:17.569Z,98642.50
2022-12-03T10:24:45.636Z,98642.77
2022-12-03T10:27:29.993Z,98640.31
2022-12-03T10:29:59.352Z,98640.55
2022-12-03T10:32:38.522Z,98637.27
2022-12-03T10:35:08.337Z,98633.06
2022-12-03T10:37:36.601Z,98631.97
2022-12-03T10:40:10.956Z,98631.84
2022-12-03T10:42:40.747Z,98630.84
2022-12-03T10:45:09.025Z,98630.59
2022-12-03T10:47:37.285Z,98629.57
2022-12-03T10:50:06.765Z,98626.05
2022-12-03T10:52:34.823Z,98628.01
2022-12-03T10:55:02.848Z,98625.84
2022-12-03T10:57:30.918Z,98627.99
2022-12-03T10:59:58.784Z,98624.84
2022-12-03T11:02:26.754Z,98621.19
2022-12-03T11:04:55.239Z,98622.30
2022-12-03T11:07:24.654Z,98622.89
2022-12-03T11:09:55.473Z,98618.66
2022-12-03T11:12:24.873Z,98622.48
2022-12-03T11:14:54.216Z,98624.89
2022-12-03T11:17:25.100Z,98623.69
2022-12-03T11:19:53.001Z,98625.94
2022-12-03T11:22:27.096Z,98623.85
2022-12-03T11:25:14.083Z,98617.09
2022-12-03T11:27:45.254Z,98618.13
2022-12-03T11:30:13.229Z,98618.30
2022-12-03T11:32:44.376Z,98619.59
2022-12-03T11:35:13.363Z,98617.70
2022-12-03T11:37:41.231Z,98618.17
2022-12-03T11:40:18.111Z,98614.35
2022-12-03T11:42:47.335Z,98614.14
2022-12-03T11:45:17.327Z,98612.64
2022-12-03T11:48:06.288Z,98611.36
2022-12-03T11:50:39.765Z,98610.63
2022-12-03T11:53:12.055Z,98606.98
2022-12-03T11:55:47.401Z,98603.29
2022-12-03T11:58:17.515Z,98602.81
2022-12-03T12:00:49.747Z,98603.18
2022-12-03T12:03:28.190Z,98605.20
2022-12-03T12:06:03.649Z,98601.02
2022-12-03T12:08:32.346Z,98599.91
2022-12-03T12:11:00.411Z,98596.45
2022-12-03T12:13:31.242Z,98594.02
2022-12-03T12:16:00.174Z,98595.19
2022-12-03T12:18:34.044Z,98597.70
2022-12-03T12:21:20.754Z,98602.70
2022-12-03T12:23:48.583Z,98602.83
2022-12-03T12:26:16.590Z,98603.58
2022-12-03T12:28:44.560Z,98605.49
2022-12-03T12:31:12.503Z,98603.21
2022-12-03T12:33:40.491Z,98605.36
2022-12-03T12:36:09.359Z,98604.81
2022-12-03T12:38:37.358Z,98601.44
2022-12-03T12:41:08.210Z,98601.49
2022-12-03T12:43:36.267Z,98597.48
2022-12-03T12:46:39.113Z,98597.14
2022-12-03T12:48:59.930Z,98595.90
2022-12-03T12:51:28.124Z,98590.77
2022-12-03T12:53:57.425Z,98588.59
2022-12-03T12:56:27.251Z,98591.17
2022-12-03T12:58:57.169Z,98590.02
2022-12-03T13:01:26.265Z,98589.08
2022-12-03T13:03:55.044Z,98590.17
2022-12-03T13:06:25.884Z,98590.55
2022-12-03T13:08:54.564Z,98587.75
2022-12-03T13:11:22.353Z,98588.52
2022-12-03T13:13:50.712Z,98586.41
2022-12-03T13:16:20.147Z,98591.64
2022-12-03T13:18:54.021Z,98597.77
2022-12-03T13:21:23.626Z,98594.41
2022-12-03T13:23:53.045Z,98599.31
2022-12-03T13:26:34.581Z,98599.91
2022-12-03T13:29:15.002Z,98599.70
2022-12-03T13:31:49.047Z,98604.77
2022-12-03T13:34:19.723Z,98606.00
2022-12-03T13:36:53.539Z,98606.52
2022-12-03T13:39:30.924Z,98604.64
2022-12-03T13:42:26.647Z,98608.42
2022-12-03T13:44:54.614Z,98609.57
2022-12-03T13:47:23.302Z,98609.63
2022-12-03T13:49:53.877Z,98613.73
2022-12-03T13:52:23.940Z,98616.23
2022-12-03T13:54:53.182Z,98616.50
2022-12-03T13:57:23.265Z,98616.20
2022-12-03T13:59:51.443Z,98618.80
2022-12-03T14:02:19.734Z,98617.69
2022-12-03T14:04:47.894Z,98614.63
2022-12-03T14:07:15.757Z,98616.39
2022-12-03T14:09:43.626Z,98619.64
2022-12-03T14:12:26.852Z,98616.09
2022-12-03T14:14:54.918Z,98618.05
2022-12-03T14:17:22.888Z,98620.55
2022-12-03T14:19:51.186Z,98617.83
2022-12-03T14:22:23.352Z,98617.90
2022-12-03T14:24:52.540Z,98620.89
2022-12-03T14:27:21.014Z,98622.18
2022-12-03T14:29:49.596Z,98621.47
2022-12-03T14:32:18.033Z,98626.25
2022-12-03T14:34:46.052Z,98628.10
2022-12-03T14:37:13.919Z,98631.69
2022-12-03T14:39:41.993Z,98632.53
2022-12-03T14:42:16.916Z,98632.86
2022-12-03T14:44:48.985Z,98633.02
2022-12-03T14:47:18.390Z,98630.45
2022-12-03T14:49:46.664Z,98634.21
2022-12-03T14:52:14.836Z,98634.50
2022-12-03T14:54:43.425Z,98637.02
2022-12-03T14:57:15.588Z,98635.92
2022-12-03T14:59:44.487Z,98638.71
2022-12-03T15:02:12.947Z,98644.45
2022-12-03T15:04:41.666Z,98651.59
2022-12-03T15:07:09.491Z,98652.88
2022-12-03T15:09:37.591Z,98651.23
2022-12-03T15:12:05.669Z,98646.50
2022-12-03T15:14:33.631Z,98647.27
2022-12-03T15:17:01.613Z,98648.88
2022-12-03T15:19:29.848Z,98651.36
2022-12-03T15:21:57.686Z,98653.15
2022-12-03T15:24:25.617Z,98654.60
2022-12-03T15:26:53.695Z,98654.32
2022-12-03T15:29:21.813Z,98653.84
2022-12-03T15:31:49.754Z,98655.06
2022-12-03T15:34:22.374Z,98656.10
2022-12-03T15:36:51.282Z,98656.44
2022-12-03T15:39:19.369Z,98657.83
2022-12-03T15:41:47.129Z,98659.74
2022-12-03T15:44:15.098Z,98660.10
2022-12-03T15:46:43.149Z,98659.94
2022-12-03T15:49:11.247Z,98666.48
2022-12-03T15:51:39.216Z,98668.71
2022-12-03T15:54:07.182Z,98667.17
2022-12-03T15:56:37.830Z,98672.65
2022-12-03T15:59:06.007Z,98678.23
2022-12-03T16:01:33.991Z,98680.36
2022-12-03T16:04:02.032Z,98682.27
2022-12-03T16:06:30.004Z,98683.97
2022-12-03T16:08:57.865Z,98687.15
2022-12-03T16:11:25.838Z,98689.95
2022-12-03T16:13:53.741Z,98690.37
2022-12-03T16:16:21.807Z,98690.77
2022-12-03T16:18:49.956Z,98689.11
2022-12-03T16:21:21.930Z,98682.75
2022-12-03T16:23:53.052Z,98683.85
2022-12-03T16:26:21.229Z,98682.92
2022-12-03T16:28:49.404Z,98682.50
2022-12-03T16:31:19.090Z,98685.67
2022-12-03T16:33:47.491Z,98684.71
2022-12-03T16:36:15.563Z,98686.72
2022-12-03T16:38:43.434Z,98685.25
2022-12-03T16:41:11.419Z,98685.14
2022-12-03T16:43:39.372Z,98684.48
2022-12-03T16:46:26.563Z,98684.86
2022-12-03T16:48:56.604Z,98688.88
2022-12-03T16:51:26.641Z,98688.39
2022-12-03T16:53:55.216Z,98685.70
2022-12-03T16:56:23.179Z,98689.20
2022-12-03T16:58:51.155Z,98688.07
2022-12-03T17:01:19.349Z,98688.44
2022-12-03T17:03:47.399Z,98687.09
2022-12-03T17:06:15.570Z,98691.58
2022-12-03T17:08:49.021Z,98690.41
2022-12-03T17:11:18.267Z,98693.36
2022-12-03T17:13:47.258Z,98691.50
2022-12-03T17:16:16.044Z,98689.13
2022-12-03T17:18:44.186Z,98690.52
2022-12-03T17:21:12.099Z,98689.69
2022-12-03T17:23:39.944Z,98693.98
2022-12-03T17:26:07.730Z,98697.61
2022-12-03T17:28:35.900Z,98693.70
2022-12-03T17:31:04.037Z,98701.09
2022-12-03T17:33:32.255Z,98704.18
2022-12-03T17:36:00.323Z,98706.25
2022-12-03T17:38:28.291Z,98705.91
2022-12-03T17:40:56.259Z,98706.77
2022-12-03T17:43:24.328Z,98706.08
2022-12-03T17:45:52.207Z,98713.09
2022-12-03T17:48:20.163Z,98714.97
2022-12-03T17:50:48.953Z,98717.70
2022-12-03T17:53:16.927Z,98715.11
2022-12-03T17:55:47.147Z,98718.20
2022-12-03T17:58:15.117Z,98720.07
2022-12-03T18:00:43.086Z,98717.30
2022-12-03T18:03:11.364Z,98714.23
2022-12-03T18:05:39.438Z,98712.52
2022-12-03T18:08:07.568Z,98709.79
2022-12-03T18:10:35.577Z,98709.27
2022-12-03T18:13:03.549Z,98711.02
2022-12-03T18:15:32.229Z,98712.08
2022-12-03T18:18:00.203Z,98712.95
2022-12-03T18:20:28.143Z,98711.23
2022-12-03T18:22:57.466Z,98713.96
2022-12-03T18:25:26.362Z,98713.62
2022-12-03T18:27:54.154Z,98714.13
2022-12-03T18:30:22.422Z,98712.76
2022-12-03T18:32:50.993Z,98711.38
2022-12-03T18:35:20.087Z,98712.79
2022-12-03T18:37:49.383Z,98712.27
2022-12-03T18:40:22.801Z,98710.59
2022-12-03T18:42:50.855Z,98710.94
2022-12-03T18:45:19.230Z,98711.11
2022-12-03T18:47:47.257Z,98709.18
2022-12-03T18:50:15.482Z,98709.33
2022-12-03T18:52:43.552Z,98715.46
2022-12-03T18:55:16.642Z,98717.14
2022-12-03T18:57:45.323Z,98716.90
2022-12-03T19:00:14.087Z,98712.50
2022-12-03T19:05:31.247Z,98710.42
2022-12-03T19:07:59.203Z,98712.90
2022-12-03T19:10:27.601Z,98713.13
2022-12-03T19:12:55.566Z,98713.00
2022-12-03T19:15:24.296Z,98716.86
2022-12-03T19:17:52.225Z,98719.52
2022-12-03T19:20:20.200Z,98719.73
2022-12-03T19:22:48.033Z,98718.95
2022-12-03T19:25:16.113Z,98721.41
2022-12-03T19:27:44.114Z,98720.00
2022-12-03T19:30:12.483Z,98719.41
2022-12-03T19:32:40.557Z,98716.95
2022-12-03T19:35:11.513Z,98717.75
2022-12-03T19:37:39.669Z,98717.33
2022-12-03T19:40:10.405Z,98715.30
2022-12-03T19:42:39.190Z,98712.63
2022-12-03T19:45:07.880Z,98714.61
2022-12-03T19:47:36.562Z,98712.98
2022-12-03T19:50:05.660Z,98710.79
2022-12-03T19:52:34.770Z,98714.81
2022-12-03T19:55:02.727Z,98719.15
2022-12-03T19:57:30.592Z,98723.50
2022-12-03T19:59:58.583Z,98723.92
2022-12-03T20:02:26.562Z,98721.95
2022-12-03T20:04:54.806Z,98719.86
2022-12-03T20:07:22.669Z,98720.63
2022-12-03T20:09:51.837Z,98723.71
2022-12-03T20:12:19.939Z,98728.30
2022-12-03T20:14:47.806Z,98725.64
2022-12-03T20:17:15.675Z,98728.83
2022-12-03T20:19:43.544Z,98732.38
2022-12-03T20:22:11.546Z,98732.55
2022-12-03T20:24:39.587Z,98731.30
2022-12-03T20:27:07.941Z,98732.79
2022-12-03T20:29:35.973Z,98732.90
2022-12-03T20:32:05.261Z,98731.91
2022-12-03T20:34:35.963Z,98735.35
2022-12-03T20:37:04.071Z,98740.35
2022-12-03T20:39:32.009Z,98740.15
2022-12-03T20:41:59.976Z,98742.61
2022-12-03T20:44:27.949Z,98745.63
2022-12-03T20:46:55.802Z,98743.09
2022-12-03T20:49:23.553Z,98742.72
2022-12-03T20:51:51.649Z,98743.58
2022-12-03T20:54:19.622Z,98743.42
2022-12-03T20:56:47.485Z,98743.23
2022-12-03T20:59:16.898Z,98749.09
2022-12-03T21:01:45.258Z,98750.00
2022-12-03T21:04:13.752Z,98751.15
2022-12-03T21:06:42.457Z,98747.44
2022-12-03T21:09:11.734Z,98749.84
2022-12-03T21:11:42.608Z,98748.58
2022-12-03T21:14:11.484Z,98751.67
2022-12-03T21:17:06.451Z,98752.42
2022-12-03T21:19:28.187Z,98750.39
2022-12-03T21:21:56.035Z,98746.09
2022-12-03T21:24:24.029Z,98743.73
2022-12-03T21:26:51.993Z,98742.95
2022-12-03T21:29:19.865Z,98745.43
2022-12-03T21:31:47.836Z,98753.06
2022-12-03T21:34:15.799Z,98750.35
2022-12-03T21:36:43.878Z,98754.08
2022-12-03T21:39:11.853Z,98753.24
2022-12-03T21:41:39.812Z,98754.23
2022-12-03T21:44:07.685Z,98753.06
2022-12-03T21:47:11.972Z,98754.38
2022-12-03T21:49:23.586Z,98753.29
2022-12-03T21:51:51.448Z,98749.67
2022-12-03T21:54:19.422Z,98747.70
2022-12-03T21:56:47.394Z,98745.05
2022-12-03T21:59:15.369Z,98743.64
2022-12-03T22:01:47.158Z,98741.14
2022-12-03T22:04:15.604Z,98739.70
2022-12-03T22:06:43.576Z,98743.61
2022-12-03T22:09:11.542Z,98743.75
2022-12-03T22:11:39.407Z,98743.58
2022-12-03T22:14:08.707Z,98740.88
2022-12-03T22:16:36.656Z,98741.46
2022-12-03T22:19:04.756Z,98740.67
2022-12-03T22:21:33.032Z,98738.77
2022-12-03T22:24:00.838Z,98737.61
2022-12-03T22:26:28.660Z,98739.34
2022-12-03T22:28:56.631Z,98738.33
2022-12-03T22:31:24.653Z,98742.48
2022-12-03T22:33:52.674Z,98744.58
2022-12-03T22:36:21.759Z,98745.60
2022-12-03T22:38:50.955Z,98746.27
2022-12-03T22:41:19.868Z,98744.88
2022-12-03T22:43:48.344Z,98740.06
2022-12-03T22:46:16.461Z,98739.02
2022-12-03T22:48:45.511Z,98736.60
2022-12-03T22:51:14.985Z,98735.05
2022-12-03T22:53:43.292Z,98735.46
2022-12-03T22:56:11.363Z,98735.16
2022-12-03T22:58:39.945Z,98735.02
2022-12-03T23:01:08.224Z,98733.85
2022-12-03T23:03:37.003Z,98734.91
2022-12-03T23:06:11.600Z,98737.38
2022-12-03T23:08:39.496Z,98741.31
2022-12-03T23:11:08.088Z,98746.63
2022-12-03T23:13:35.927Z,98743.16
2022-12-03T23:16:04.320Z,98737.83
2022-12-03T23:18:32.612Z,98737.14
2022-12-03T23:21:00.578Z,98737.14
2022-12-03T23:23:28.557Z,98733.70
2022-12-03T23:26:07.370Z,98735.55
2022-12-03T23:28:36.256Z,98737.42
2022-12-03T23:31:05.203Z,98739.14
2022-12-03T23:33:38.134Z,98741.17
2022-12-03T23:36:06.827Z,98737.38
2022-12-03T23:38:34.667Z,98733.27
2022-12-03T23:41:06.674Z,98733.76
2022-12-03T23:43:34.929Z,98728.44
2022-12-03T23:46:10.233Z,98729.64
2022-12-03T23:48:38.211Z,98727.56
2022-12-03T23:51:09.898Z,98730.46
2022-12-03T23:53:38.712Z,98727.89
2022-12-03T23:56:11.677Z,98726.05
2022-12-03T23:58:39.545Z,98724.09
